Linda Fortune — 3FOW6 — position and weather

sailwx.info

Track history (hours):
 
Tides and Currents Weather Stations Pressure Air Temp Water Temp Dewpoint Dewpoint Depression Visibility Wind Speed Wind Dir Waves Ship Positions

Linda Fortune

Last reported at 2017-Apr-21 05:24 UTC. Time now 2017-Apr-28 14:05 UTC.
Position N 22°52' E 119°53'.

Length 281 m; draft 18.2 m.

Type: Cargo ship. MMSI: 352793000.

Date/timePositionNaut miles runAvg speedWind from/ knotsBaromVisibWave heightAir tempDewpointWater temp
2017-Apr-21 05:24N 22°52' E 119°53'511.5
2017-Apr-21 04:59N 22°48' E 119°51'611.5
2017-Apr-21 04:29N 22°43' E 119°47'  
2017-Apr-14 23:36N 01°16' E 104°05'1 8.9
2017-Apr-14 23:30N 01°16' E 104°04'3 6.1
2017-Apr-14 23:00N 01°17' E 104°01'0 0.4
2017-Apr-14 22:30N 01°17' E 104°01'0 0.0
2017-Apr-14 22:00N 01°17' E 104°01'0 0.0
2017-Apr-14 21:30N 01°17' E 104°01'0 0.0
2017-Apr-14 20:54N 01°17' E 104°01'0 0.0
2017-Apr-14 20:24N 01°17' E 104°01'0 0.2
2017-Apr-14 20:00N 01°17' E 104°01'0 0.0
2017-Apr-14 19:27N 01°17' E 104°01'0 0.0
2017-Apr-14 18:54N 01°17' E 104°01'0 0.2
2017-Apr-14 18:15N 01°17' E 104°01'0 0.3
2017-Apr-14 18:00N 01°17' E 104°01'0 0.2
2017-Apr-14 17:06N 01°17' E 104°01'0 0.0
2017-Apr-14 16:39N 01°17' E 104°01'0 0.1
2017-Apr-14 16:12N 01°17' E 104°01'0 0.0
2017-Apr-14 16:00N 01°17' E 104°01'0 0.0
2017-Apr-14 14:27N 01°17' E 104°01'0 0.0
2017-Apr-14 09:57N 01°17' E 104°01'0 0.0
2017-Apr-14 08:27N 01°17' E 104°01'0 0.1
2017-Apr-14 08:00N 01°17' E 104°01'0 0.0
2017-Apr-14 07:30N 01°17' E 104°01'0 0.0
2017-Apr-14 06:57N 01°17' E 104°01'0 0.0
2017-Apr-14 06:27N 01°17' E 104°01'0 0.0
2017-Apr-14 05:51N 01°17' E 104°01'0 0.0
2017-Apr-14 05:21N 01°17' E 104°01'0 0.1
2017-Apr-14 04:51N 01°17' E 104°01'0 0.0
2017-Apr-14 04:12N 01°17' E 104°01'0 0.0
2017-Apr-14 04:00N 01°17' E 104°01'0 0.0
2017-Apr-14 03:30N 01°17' E 104°01'0 0.1
2017-Apr-14 02:21N 01°17' E 104°01'0 0.1
2017-Apr-14 01:54N 01°17' E 104°01'0 0.3
2017-Apr-14 01:27N 01°17' E 104°01'0 0.2
2017-Apr-14 00:27N 01°17' E 104°01'0 0.1
2017-Apr-13 23:59N 01°17' E 104°01'0 1.0
2017-Apr-13 23:31N 01°17' E 104°01'3 5.3
2017-Apr-13 23:01N 01°15' E 103°59'4 8.1
2017-Apr-13 22:30N 01°13' E 103°55'510.7
2017-Apr-13 22:00N 01°11' E 103°51'611.9
2017-Apr-13 21:31N 01°08' E 103°45'612.2
2017-Apr-13 21:00N 01°04' E 103°41'510.5
2017-Apr-13 20:30N 01°05' E 103°36'611.6
2017-Apr-13 20:00N 01°08' E 103°31'611.8
2017-Apr-13 19:28N 01°11' E 103°26'511.1
2017-Apr-13 18:59N 01°14' E 103°21'3 6.4
2017-Apr-13 18:29N 01°16' E 103°19'3 5.1
2017-Apr-13 17:58N 01°18' E 103°17'18 8.8
2017-Apr-13 15:57N 01°29' E 103°02'510.1
2017-Apr-13 15:29N 01°31' E 102°58'1510.4
2017-Apr-13 14:03N 01°39' E 102°46'2610.7
2017-Apr-13 11:40N 01°50' E 102°22'210.4
2017-Apr-13 11:27N 01°51' E 102°20'  
Track history (hours):
 
Tides and Currents Weather Stations Pressure Air Temp Water Temp Dewpoint Dewpoint Depression Visibility Wind Speed Wind Dir Waves Ship Positions

Linda Fortune

Last reported at 2017-Apr-21 05:24 UTC. Time now 2017-Apr-28 14:05 UTC.
Position N 22°52' E 119°53'.

Length 281 m; draft 18.2 m.

Type: Cargo ship. MMSI: 352793000.

Date/timePositionNaut miles runAvg speedWind from/ knotsBaromVisibWave heightAir tempDewpointWater temp
2017-Apr-21 05:24N 22°52' E 119°53'511.5
2017-Apr-21 04:59N 22°48' E 119°51'611.5
2017-Apr-21 04:29N 22°43' E 119°47'  
2017-Apr-14 23:36N 01°16' E 104°05'1 8.9
2017-Apr-14 23:30N 01°16' E 104°04'3 6.1
2017-Apr-14 23:00N 01°17' E 104°01'0 0.4
2017-Apr-14 22:30N 01°17' E 104°01'0 0.0
2017-Apr-14 22:00N 01°17' E 104°01'0 0.0
2017-Apr-14 21:30N 01°17' E 104°01'0 0.0
2017-Apr-14 20:54N 01°17' E 104°01'0 0.0
2017-Apr-14 20:24N 01°17' E 104°01'0 0.2
2017-Apr-14 20:00N 01°17' E 104°01'0 0.0
2017-Apr-14 19:27N 01°17' E 104°01'0 0.0
2017-Apr-14 18:54N 01°17' E 104°01'0 0.2
2017-Apr-14 18:15N 01°17' E 104°01'0 0.3
2017-Apr-14 18:00N 01°17' E 104°01'0 0.2
2017-Apr-14 17:06N 01°17' E 104°01'0 0.0
2017-Apr-14 16:39N 01°17' E 104°01'0 0.1
2017-Apr-14 16:12N 01°17' E 104°01'0 0.0
2017-Apr-14 16:00N 01°17' E 104°01'0 0.0
2017-Apr-14 14:27N 01°17' E 104°01'0 0.0
2017-Apr-14 09:57N 01°17' E 104°01'0 0.0
2017-Apr-14 08:27N 01°17' E 104°01'0 0.1
2017-Apr-14 08:00N 01°17' E 104°01'0 0.0
2017-Apr-14 07:30N 01°17' E 104°01'0 0.0
2017-Apr-14 06:57N 01°17' E 104°01'0 0.0
2017-Apr-14 06:27N 01°17' E 104°01'0 0.0
2017-Apr-14 05:51N 01°17' E 104°01'0 0.0
2017-Apr-14 05:21N 01°17' E 104°01'0 0.1
2017-Apr-14 04:51N 01°17' E 104°01'0 0.0
2017-Apr-14 04:12N 01°17' E 104°01'0 0.0
2017-Apr-14 04:00N 01°17' E 104°01'0 0.0
2017-Apr-14 03:30N 01°17' E 104°01'0 0.1
2017-Apr-14 02:21N 01°17' E 104°01'0 0.1
2017-Apr-14 01:54N 01°17' E 104°01'0 0.3
2017-Apr-14 01:27N 01°17' E 104°01'0 0.2
2017-Apr-14 00:27N 01°17' E 104°01'0 0.1
2017-Apr-13 23:59N 01°17' E 104°01'0 1.0
2017-Apr-13 23:31N 01°17' E 104°01'3 5.3
2017-Apr-13 23:01N 01°15' E 103°59'4 8.1
2017-Apr-13 22:30N 01°13' E 103°55'510.7
2017-Apr-13 22:00N 01°11' E 103°51'611.9
2017-Apr-13 21:31N 01°08' E 103°45'612.2
2017-Apr-13 21:00N 01°04' E 103°41'510.5
2017-Apr-13 20:30N 01°05' E 103°36'611.6
2017-Apr-13 20:00N 01°08' E 103°31'611.8
2017-Apr-13 19:28N 01°11' E 103°26'511.1
2017-Apr-13 18:59N 01°14' E 103°21'3 6.4
2017-Apr-13 18:29N 01°16' E 103°19'3 5.1
2017-Apr-13 17:58N 01°18' E 103°17'18 8.8
2017-Apr-13 15:57N 01°29' E 103°02'510.1
2017-Apr-13 15:29N 01°31' E 102°58'1510.4
2017-Apr-13 14:03N 01°39' E 102°46'2610.7
2017-Apr-13 11:40N 01°50' E 102°22'210.4
2017-Apr-13 11:27N 01°51' E 102°20'  

Dump ship's entire track history